Terminal Aerodrome Forecast
Issued by NWS

Home | Current Version | Previous Version | Graphics & Text | Print | Product List | Glossary On
Versions: 1 2 3 4 5 6 7 8 9 10 11 12 13 14 15 16 17 18 19 20 21
000
FTUS43 KGRB 312334
TAFAUW
TAF
KAUW 312334Z 0100/0124 22007KT P6SM SCT020
     FM010200 VRB03KT P6SM SKC
     FM010400 VRB03KT 5SM BR SCT015
     FM010900 VRB02KT 4SM BR SCT005 BKN015
      TEMPO 0110/0114 1 1/2SM BR BKN005
     FM011400 22006KT P6SM FEW007 SCT015
     FM011800 21010G15KT P6SM SCT200=

USA.gov is the U.S. government's official web portal to all federal, state and local government web resources and services.